Time;durP1;ratioP1;P1;durP2;ratioP2;P2;SDS_P1;SDS_P2;PMS_P1;PMS_P2;Temp;Humidity;BMP_temperature;BMP_pressure;BME280_temperature;BME280_humidity;BME280_pressure;Samples;Min_cycle;Max_cycle;Signal;HPM_P1;HPM_P2
2022/06/17 00:00:48;;;;;;;7.28;3.67;;;;;;;12.87;59.50;99729.84;4906487;29;20055;-78
2022/06/17 00:03:14;;;;;;;8.75;3.35;;;;;;;12.78;59.63;99720.47;4909549;29;20075;-76
2022/06/17 00:05:40;;;;;;;10.63;4.78;;;;;;;12.85;59.77;99736.84;4921255;29;20079;-81
2022/06/17 00:08:14;;;;;;;10.75;3.83;;;;;;;12.75;59.82;99714.41;4907841;29;20311;-80
2022/06/17 00:10:41;;;;;;;11.75;3.75;;;;;;;12.70;59.86;99711.91;4907344;29;20060;-81
2022/06/17 00:13:12;;;;;;;13.57;3.45;;;;;;;12.77;60.18;99725.69;4892186;29;20094;-80
2022/06/17 00:15:38;;;;;;;12.23;3.60;;;;;;;12.63;60.31;99703.31;4908948;29;20036;-79
2022/06/17 00:18:04;;;;;;;11.48;3.53;;;;;;;12.69;60.41;99717.16;4907414;29;20044;-81
2022/06/17 00:20:34;;;;;;;8.75;4.15;;;;;;;12.69;60.49;99718.00;4908207;29;20170;-78
2022/06/17 00:23:01;;;;;;;9.52;3.95;;;;;;;12.74;60.50;99733.56;4905580;29;20070;-82
2022/06/17 00:25:34;;;;;;;9.50;3.92;;;;;;;12.68;60.72;99718.91;4905941;29;20050;-78
2022/06/17 00:28:01;;;;;;;18.27;4.05;;;;;;;12.64;60.74;99712.88;4909051;29;20052;-77
2022/06/17 00:30:32;;;;;;;10.02;3.88;;;;;;;12.72;60.83;99730.13;4907698;29;20582;-80
2022/06/17 00:33:01;;;;;;;11.95;3.75;;;;;;;12.59;60.95;99709.50;4907027;29;20111;-79
2022/06/17 00:35:36;;;;;;;14.68;3.88;;;;;;;12.69;61.10;99728.44;4892460;29;20063;-79
2022/06/17 00:38:04;;;;;;;9.60;3.45;;;;;;;12.67;60.75;99729.38;4904394;29;20036;-78
2022/06/17 00:40:34;;;;;;;7.40;3.30;;;;;;;12.62;61.32;99729.44;4906640;29;20485;-79
2022/06/17 00:43:05;;;;;;;13.43;4.32;;;;;;;12.63;61.14;99725.94;4906054;29;20086;-78
2022/06/17 00:46:05;;;;;;;12.75;3.60;;;;;;;12.63;61.24;99734.66;4920753;29;20230;-77
2022/06/17 00:48:39;;;;;;;12.93;3.20;;;;;;;12.60;61.19;99737.31;4919937;29;20056;-79
2022/06/17 00:51:20;;;;;;;11.63;3.20;;;;;;;12.49;61.44;99731.41;4905155;29;20036;-78
2022/06/17 00:53:58;;;;;;;7.65;3.53;;;;;;;12.44;61.58;99728.03;4907019;29;20063;-79
2022/06/17 00:56:30;;;;;;;7.40;3.67;;;;;;;12.43;61.50;99732.38;4922064;29;20498;-79
2022/06/17 00:59:03;;;;;;;8.18;3.30;;;;;;;12.43;61.66;99748.03;4920333;29;20497;-82
2022/06/17 01:01:37;;;;;;;9.00;3.63;;;;;;;12.43;61.85;99749.81;4904101;29;20058;-78
2022/06/17 01:04:05;;;;;;;6.75;3.10;;;;;;;12.35;62.06;99742.97;4907385;29;20565;-78
2022/06/17 01:06:39;;;;;;;6.97;3.05;;;;;;;12.30;62.33;99731.75;4919812;29;20048;-77
2022/06/17 01:12:03;;;;;;;5.45;3.25;;;;;;;12.34;62.03;99749.06;4906645;29;20041;-80
2022/06/17 01:14:30;;;;;;;;;;;;;;;12.40;62.29;99749.84;4905495;29;20066;-79
2022/06/17 01:16:57;;;;;;;5.90;2.92;;;;;;;12.33;62.45;99744.75;4906631;29;19946;-80
2022/06/17 01:19:46;;;;;;;7.95;3.13;;;;;;;12.46;62.66;99754.97;4893443;29;20040;-77
2022/06/17 01:22:40;;;;;;;9.30;3.00;;;;;;;12.45;62.25;99745.44;4905068;29;20584;-79
2022/06/17 01:25:13;;;;;;;5.47;3.38;;;;;;;12.46;62.51;99754.97;4911878;29;20067;-78
2022/06/17 01:27:44;;;;;;;8.27;3.40;;;;;;;12.37;62.60;99729.03;4925646;29;20523;-79
2022/06/17 01:30:15;;;;;;;8.38;3.50;;;;;;;12.46;62.50;99737.56;4903851;29;20054;-80
2022/06/17 01:32:54;;;;;;;7.87;3.17;;;;;;;12.61;62.73;99753.81;4909114;29;20035;-81
2022/06/17 01:35:22;;;;;;;10.60;3.88;;;;;;;12.60;62.61;99736.44;4907882;29;20567;-81
2022/06/17 01:37:49;;;;;;;11.30;3.75;;;;;;;12.57;62.58;99721.72;4911063;29;20100;-80
2022/06/17 01:40:17;;;;;;;6.93;3.45;;;;;;;12.75;62.47;99745.75;4907813;29;20077;-79
2022/06/17 01:42:44;;;;;;;7.65;3.35;;;;;;;12.82;62.48;99749.97;4908384;29;20044;-83
2022/06/17 01:45:11;;;;;;;11.05;4.30;;;;;;;12.91;62.42;99744.56;4925589;29;20041;-79
2022/06/17 01:47:41;;;;;;;6.85;3.33;;;;;;;12.98;62.41;99741.84;4923656;29;20063;-82
2022/06/17 01:50:15;;;;;;;13.35;3.65;;;;;;;13.06;62.20;99745.16;4896032;29;20048;-80
2022/06/17 01:53:05;;;;;;;8.45;3.80;;;;;;;13.16;62.14;99744.06;4907224;29;20139;-80
2022/06/17 01:55:50;;;;;;;9.70;3.80;;;;;;;13.23;61.78;99743.06;4940796;29;20075;-79
2022/06/17 01:58:45;;;;;;;11.40;3.63;;;;;;;13.32;61.77;99746.38;4896492;29;20055;-79
2022/06/17 02:01:13;;;;;;;13.75;4.07;;;;;;;13.29;61.77;99734.22;4906505;29;20052;-80
2022/06/17 02:03:47;;;;;;;9.30;3.80;;;;;;;13.39;61.72;99745.34;4912027;29;20044;-81
2022/06/17 02:06:31;;;;;;;7.57;3.60;;;;;;;13.38;61.23;99730.56;4923607;29;20051;-79
2022/06/17 02:08:57;;;;;;;11.15;3.45;;;;;;;13.44;61.41;99725.22;4911862;29;20052;-79
2022/06/17 02:11:24;;;;;;;13.00;3.63;;;;;;;13.58;61.35;99752.81;4927458;29;20040;-80
2022/06/17 02:14:00;;;;;;;11.07;3.80;;;;;;;13.57;61.02;99735.44;4914179;29;20049;-78
2022/06/17 02:16:54;;;;;;;5.78;3.10;;;;;;;13.63;61.18;99738.75;4899264;29;20068;-79
2022/06/17 02:19:41;;;;;;;4.00;3.00;;;;;;;13.79;61.08;99757.56;4926024;29;20077;-77
2022/06/17 02:22:24;;;;;;;7.47;3.63;;;;;;;13.74;60.80;99743.75;4912600;29;20044;-79
2022/06/17 02:25:00;;;;;;;9.70;3.78;;;;;;;13.92;61.18;99758.13;4911203;29;20475;-82
2022/06/17 02:27:29;;;;;;;6.55;3.35;;;;;;;14.02;60.80;99756.16;4910359;29;20452;-78
2022/06/17 02:29:56;;;;;;;8.82;3.67;;;;;;;14.07;60.65;99756.91;4921939;29;20795;-78
2022/06/17 02:32:23;;;;;;;5.25;3.10;;;;;;;14.13;60.74;99750.66;4912564;29;20032;-80
2022/06/17 02:35:01;;;;;;;8.55;3.47;;;;;;;14.24;60.61;99746.06;4907251;29;20056;-80
2022/06/17 02:37:29;;;;;;;7.78;3.38;;;;;;;14.29;60.43;99746.81;4912334;29;20098;-79
2022/06/17 02:39:58;;;;;;;9.15;3.55;;;;;;;14.40;60.41;99746.53;4926549;29;20135;-79
2022/06/17 02:42:36;;;;;;;9.88;3.67;;;;;;;14.55;60.64;99762.72;4909852;29;20496;-81
2022/06/17 02:45:14;;;;;;;11.80;3.42;;;;;;;14.52;59.98;99745.34;4927920;29;20548;-78
2022/06/17 02:47:41;;;;;;;4.18;2.80;;;;;;;14.64;60.07;99751.16;4909468;29;20051;-78
2022/06/17 02:50:16;;;;;;;6.88;2.92;;;;;;;14.72;59.93;99749.25;4920928;29;20056;-78
2022/06/17 02:52:43;;;;;;;12.60;3.25;;;;;;;14.69;59.75;99736.22;4944381;29;20034;-79
2022/06/17 02:55:34;;;;;;;8.75;3.25;;;;;;;14.92;59.39;99753.91;4894606;29;20060;-77
2022/06/17 02:58:31;;;;;;;7.65;3.38;;;;;;;14.96;59.41;99741.63;4927707;29;20052;-80
2022/06/17 03:00:58;;;;;;;9.07;3.50;;;;;;;15.02;58.97;99737.06;4949191;28;20048;-78
2022/06/17 03:03:26;;;;;;;11.18;3.25;;;;;;;15.24;59.09;99746.91;4932282;29;20055;-77
2022/06/17 03:05:53;;;;;;;8.43;3.50;;;;;;;15.27;58.91;99744.22;4934130;29;20039;-79
2022/06/17 03:08:26;;;;;;;12.77;3.50;;;;;;;15.33;58.79;99736.19;4914327;29;20056;-80
2022/06/17 03:10:56;;;;;;;9.82;3.50;;;;;;;15.46;58.53;99741.88;4931861;29;20048;-78
2022/06/17 03:13:31;;;;;;;7.93;3.28;;;;;;;15.63;58.93;99740.53;4907392;29;20044;-80
2022/06/17 03:16:02;;;;;;;8.32;3.33;;;;;;;15.77;58.00;99745.38;4892874;29;20051;-78
2022/06/17 03:18:30;;;;;;;8.43;3.40;;;;;;;15.93;57.84;99754.50;4895936;29;20074;-80
2022/06/17 03:20:58;;;;;;;9.65;3.03;;;;;;;15.99;57.57;99737.69;4909430;29;20051;-81
2022/06/17 03:23:33;;;;;;;11.02;3.00;;;;;;;16.11;57.30;99752.19;4922947;29;20143;-80
2022/06/17 03:26:25;;;;;;;8.80;2.95;;;;;;;16.15;57.06;99747.66;4908535;29;20048;-80
2022/06/17 03:28:52;;;;;;;12.85;3.67;;;;;;;16.11;56.98;99732.03;4906494;29;20500;-81
2022/06/17 03:31:24;;;;;;;7.03;3.53;;;;;;;16.29;56.93;99745.47;4907906;29;20045;-81
2022/06/17 03:33:58;;;;;;;15.80;3.63;;;;;;;16.45;56.76;99743.16;4913070;29;20060;-78
2022/06/17 03:36:30;;;;;;;9.25;3.47;;;;;;;16.67;56.83;99745.03;4913713;29;20111;-76
2022/06/17 03:39:00;;;;;;;15.20;3.55;;;;;;;16.89;56.41;99747.78;4914484;29;20037;-83
2022/06/17 03:41:39;;;;;;;11.57;4.03;;;;;;;17.08;56.04;99742.75;4913102;29;20050;-77
2022/06/17 03:44:14;;;;;;;7.72;3.67;;;;;;;17.22;55.47;99744.00;4896295;29;20576;-80
2022/06/17 03:46:49;;;;;;;10.82;3.92;;;;;;;17.38;55.44;99750.41;4906613;29;20069;-81
2022/06/17 03:49:26;;;;;;;10.55;3.83;;;;;;;17.45;55.10;99736.09;4895350;29;20571;-77
2022/06/17 03:52:00;;;;;;;15.98;4.63;;;;;;;17.63;54.86;99738.94;4905662;29;20055;-81
2022/06/17 03:54:26;;;;;;;12.77;4.50;;;;;;;17.85;54.72;99731.06;4923328;29;20044;-79
2022/06/17 03:56:54;;;;;;;12.38;3.83;;;;;;;18.06;54.25;99742.50;4922821;29;20044;-80
2022/06/17 03:59:28;;;;;;;9.48;3.22;;;;;;;18.16;53.96;99728.97;4893696;29;20044;-81
2022/06/17 04:02:03;;;;;;;8.70;3.10;;;;;;;18.31;53.65;99733.59;4942359;29;20062;-78
2022/06/17 04:04:37;;;;;;;12.80;3.92;;;;;;;18.50;53.30;99740.72;4919953;29;20447;-79
2022/06/17 04:07:04;;;;;;;9.18;3.35;;;;;;;18.70;52.85;99731.09;4906198;29;20067;-78
2022/06/17 04:09:40;;;;;;;9.80;3.67;;;;;;;18.90;52.50;99731.06;4894896;29;20040;-80
2022/06/17 04:12:12;;;;;;;8.35;3.22;;;;;;;19.10;52.08;99731.97;4909722;29;20047;-77
2022/06/17 04:14:48;;;;;;;9.38;3.30;;;;;;;19.33;52.02;99730.94;4906125;29;20067;-79
2022/06/17 04:17:14;;;;;;;10.55;3.08;;;;;;;19.62;51.43;99731.38;4911406;29;20058;-82
2022/06/17 04:19:52;;;;;;;7.55;2.67;;;;;;;19.79;50.95;99717.34;4922952;29;20048;-82
2022/06/17 04:22:25;;;;;;;6.47;2.83;;;;;;;19.94;49.98;99717.56;4907539;29;20044;-81
2022/06/17 04:25:28;;;;;;;7.88;3.35;;;;;;;20.02;49.09;99710.09;4899311;29;20044;-81
2022/06/17 04:27:56;;;;;;;6.50;2.70;;;;;;;20.14;48.89;99725.34;4940733;29;20051;-78
2022/06/17 04:30:33;;;;;;;13.52;3.60;;;;;;;20.04;48.51;99723.25;4922089;29;20123;-80
2022/06/17 04:33:25;;;;;;;5.95;2.97;;;;;;;20.09;48.83;99708.00;4907203;29;20043;-79
2022/06/17 04:35:57;;;;;;;6.85;3.10;;;;;;;20.24;48.37;99723.09;4906519;29;20178;-79
2022/06/17 04:38:24;;;;;;;6.45;2.75;;;;;;;20.29;48.13;99722.88;4923397;29;20059;-82
2022/06/17 04:41:37;;;;;;;10.63;3.00;;;;;;;20.37;47.84;99723.34;4892997;29;20048;-79
2022/06/17 04:44:12;;;;;;;9.30;3.47;;;;;;;20.28;48.02;99703.53;4907263;29;20048;-79
2022/06/17 04:46:47;;;;;;;4.93;3.33;;;;;;;20.53;47.48;99725.19;4900703;29;20049;-81
2022/06/17 04:49:28;;;;;;;10.45;3.17;;;;;;;20.51;47.46;99709.44;4924817;29;20055;-78
2022/06/17 04:52:00;;;;;;;7.03;3.17;;;;;;;20.77;47.42;99723.94;4909404;29;20047;-81
2022/06/17 04:54:29;;;;;;;7.15;3.42;;;;;;;20.91;47.36;99717.94;4906687;29;20048;-80
2022/06/17 04:57:14;;;;;;;6.72;2.70;;;;;;;21.02;46.97;99720.00;4905990;29;20048;-81
2022/06/17 04:59:58;;;;;;;6.97;2.67;;;;;;;21.02;46.39;99724.41;4909468;29;20111;-81
2022/06/17 05:02:30;;;;;;;4.53;3.03;;;;;;;20.97;46.48;99713.22;4923196;29;20078;-82
2022/06/17 05:05:38;;;;;;;8.43;2.75;;;;;;;20.81;46.34;99676.19;4917691;29;20063;-79
2022/06/17 05:08:15;;;;;;;4.75;2.30;;;;;;;21.18;46.00;99719.16;4908792;29;20039;-79
2022/06/17 05:10:51;;;;;;;6.20;2.60;;;;;;;21.36;45.53;99715.50;4914201;29;20091;-80
2022/06/17 05:13:28;;;;;;;4.85;2.28;;;;;;;21.42;45.76;99698.41;4913244;29;20176;-79
2022/06/17 05:15:57;;;;;;;7.65;2.95;;;;;;;21.61;45.38;99711.53;4913905;29;20047;-82
2022/06/17 05:18:23;;;;;;;7.43;2.30;;;;;;;21.83;45.03;99715.59;4924426;29;20078;-78
2022/06/17 05:20:57;;;;;;;8.38;2.33;;;;;;;21.95;44.75;99720.22;4941913;29;20127;-81
2022/06/17 05:23:23;;;;;;;3.63;1.92;;;;;;;21.93;44.66;99714.16;4926139;29;20232;-78
2022/06/17 05:25:49;;;;;;;5.10;2.03;;;;;;;21.95;43.75;99716.69;4914078;29;20135;-81
2022/06/17 05:28:19;;;;;;;3.53;2.10;;;;;;;21.96;44.02;99716.59;4925248;29;20077;-80
2022/06/17 05:30:54;;;;;;;7.60;2.13;;;;;;;22.03;43.77;99695.91;4913093;29;20098;-77
2022/06/17 05:33:26;;;;;;;4.70;1.77;;;;;;;22.25;43.69;99708.75;4912821;29;20499;-80
2022/06/17 05:35:52;;;;;;;4.43;2.00;;;;;;;22.23;43.45;99700.03;4906972;29;20067;-80
2022/06/17 05:38:19;;;;;;;4.97;1.90;;;;;;;22.30;42.83;99686.44;4896287;29;20047;-78
2022/06/17 05:40:45;;;;;;;4.03;2.05;;;;;;;22.33;42.59;99702.97;4913088;29;20048;-82
2022/06/17 05:43:13;;;;;;;4.75;2.22;;;;;;;22.34;42.68;99709.16;4911877;29;20134;-81
2022/06/17 05:45:39;;;;;;;4.78;1.80;;;;;;;22.42;42.43;99712.19;4918465;29;20048;-78
2022/06/17 05:48:12;;;;;;;7.78;2.33;;;;;;;22.48;42.44;99690.66;4914661;29;20048;-79
2022/06/17 05:50:50;;;;;;;7.68;1.80;;;;;;;22.67;41.93;99653.28;4911658;29;20052;-81
2022/06/17 05:53:45;;;;;;;4.82;1.40;;;;;;;23.95;41.26;99706.28;4919972;29;20047;-80
2022/06/17 05:56:31;;;;;;;7.00;1.70;;;;;;;26.00;38.55;99693.75;4912622;29;20075;-81
2022/06/17 05:58:57;;;;;;;5.20;1.85;;;;;;;27.93;36.46;99663.47;4894205;29;20127;-80
2022/06/17 06:01:23;;;;;;;2.20;1.50;;;;;;;29.83;33.72;99666.66;4910292;29;20155;-79
2022/06/17 06:03:49;;;;;;;4.95;1.67;;;;;;;31.67;31.13;99660.88;4924733;29;20043;-83
2022/06/17 06:06:15;;;;;;;4.35;1.65;;;;;;;32.62;29.09;99645.97;4923295;29;20518;-80
2022/06/17 06:09:01;;;;;;;5.68;1.80;;;;;;;33.61;26.84;99639.06;4908767;29;20639;-81
2022/06/17 06:11:27;;;;;;;6.53;2.10;;;;;;;34.64;25.36;99658.38;4925029;29;20099;-81
2022/06/17 06:13:54;;;;;;;4.45;1.75;;;;;;;34.74;24.38;99617.66;4910188;29;20508;-80
2022/06/17 06:16:20;;;;;;;4.57;1.70;;;;;;;34.86;23.79;99639.72;4922166;29;20050;-80
2022/06/17 06:18:50;;;;;;;4.38;2.00;;;;;;;35.51;23.82;99634.16;4895667;29;20047;-79
2022/06/17 06:21:19;;;;;;;2.50;1.55;;;;;;;35.43;22.60;99635.84;4891772;29;20048;-80
2022/06/17 06:23:46;;;;;;;3.13;1.90;;;;;;;34.82;23.08;99636.53;4911988;29;20122;-80
2022/06/17 06:26:21;;;;;;;2.92;1.48;;;;;;;33.71;23.36;99648.84;4895777;29;20045;-77
2022/06/17 06:28:56;;;;;;;4.07;1.35;;;;;;;33.52;23.80;99629.28;4909006;29;20059;-79
2022/06/17 06:31:36;;;;;;;2.28;1.50;;;;;;;34.10;22.74;99648.16;4923133;29;20544;-79
2022/06/17 06:34:13;;;;;;;4.13;1.40;;;;;;;34.79;22.17;99641.44;4923096;29;20461;-78
2022/06/17 06:37:12;;;;;;;2.83;1.50;;;;;;;35.51;22.00;99632.31;4924196;29;20079;-77
2022/06/17 06:39:48;;;;;;;4.50;2.13;;;;;;;36.12;20.67;99631.44;4890362;29;20299;-80
2022/06/17 06:42:16;;;;;;;6.40;2.30;;;;;;;37.30;19.91;99638.00;4924938;29;20071;-80
2022/06/17 06:45:22;;;;;;;4.43;1.75;;;;;;;38.73;19.13;99602.53;4905577;29;20048;-80
2022/06/17 06:48:14;;;;;;;2.45;1.25;;;;;;;39.14;17.97;99587.22;4879931;29;20095;-82
2022/06/17 06:51:01;;;;;;;6.65;4.38;;;;;;;39.75;17.96;99620.78;4911864;29;21067;-80
2022/06/17 06:53:27;;;;;;;18.98;14.13;;;;;;;40.72;17.09;99611.19;4912538;29;20102;-79
2022/06/17 06:55:54;;;;;;;1.95;1.20;;;;;;;41.32;16.38;99617.38;4908752;29;20445;-79
2022/06/17 06:58:24;;;;;;;4.78;2.42;;;;;;;42.14;15.82;99614.66;4910288;29;20057;-81
2022/06/17 07:00:55;;;;;;;4.22;1.80;;;;;;;43.01;15.03;99601.00;4925282;29;20063;-83
2022/06/17 07:03:26;;;;;;;5.47;2.00;;;;;;;43.28;14.52;99603.38;4896248;29;20441;-82
2022/06/17 07:05:57;;;;;;;7.82;3.17;;;;;;;43.35;14.64;99590.41;4912812;29;20048;-82
2022/06/17 07:08:32;;;;;;;6.10;2.05;;;;;;;43.22;14.17;99555.88;4907662;29;20048;-82
2022/06/17 07:10:59;;;;;;;2.75;1.48;;;;;;;44.09;14.05;99613.81;4907273;29;20103;-85
2022/06/17 07:13:28;;;;;;;4.45;1.70;;;;;;;43.70;13.29;99605.25;4908867;29;20051;-84
2022/06/17 07:15:55;;;;;;;5.35;1.40;;;;;;;43.17;13.91;99605.78;4908217;29;20055;-82
2022/06/17 07:18:25;;;;;;;4.72;1.80;;;;;;;42.81;13.56;99582.97;4893676;29;20044;-82
2022/06/17 07:20:56;;;;;;;;;;;;;;;42.88;13.41;99618.44;4907937;29;20063;-85
2022/06/17 07:23:25;;;;;;;3.17;1.50;;;;;;;42.23;13.58;99521.44;4906466;29;19923;-81
2022/06/17 07:25:58;;;;;;;3.57;1.47;;;;;;;42.63;13.26;99597.47;4937169;29;20056;-83
2022/06/17 07:28:25;;;;;;;2.28;1.23;;;;;;;42.47;13.30;99590.75;4910532;29;20048;-84
2022/06/17 07:30:55;;;;;;;3.60;1.55;;;;;;;42.34;13.05;99545.28;4907958;29;20178;-89
2022/06/17 07:40:36;;;;;;;1.98;1.60;;;;;;;40.62;13.47;99539.94;4859109;29;20111;-82
2022/06/17 07:43:03;;;;;;;6.18;1.70;;;;;;;39.30;14.73;99558.81;4908321;29;20119;-84
2022/06/17 07:45:33;;;;;;;3.10;1.10;;;;;;;39.98;14.98;99496.16;4912036;29;20047;-83
2022/06/17 07:48:00;;;;;;;4.53;2.25;;;;;;;41.89;13.68;99614.63;4909828;29;20052;-83
2022/06/17 07:50:37;;;;;;;7.75;2.30;;;;;;;43.13;12.82;99558.09;4914926;29;20039;-83
2022/06/17 07:53:05;;;;;;;2.92;1.70;;;;;;;44.15;12.33;99579.16;4930491;29;20047;-83
2022/06/17 07:55:32;;;;;;;6.53;2.42;;;;;;;41.70;13.71;99535.44;4918833;29;20036;-82
2022/06/17 07:58:01;;;;;;;2.60;1.50;;;;;;;40.77;14.05;99614.09;4932838;29;20047;-83
2022/06/17 08:00:34;;;;;;;5.20;2.63;;;;;;;39.88;15.15;99610.97;4908076;29;20067;-78
2022/06/17 08:03:01;;;;;;;3.45;1.88;;;;;;;39.91;14.78;99532.41;4926637;29;20051;-82
2022/06/17 08:05:31;;;;;;;3.00;1.45;;;;;;;40.44;14.42;99573.34;4897037;29;20103;-82
2022/06/17 08:08:03;;;;;;;;;;;;;;;40.31;13.86;99606.91;4911353;29;20052;-82
2022/06/17 08:10:33;;;;;;;4.47;1.50;;;;;;;41.14;14.09;99601.78;4921697;29;19923;-81
2022/06/17 08:13:00;;;;;;;6.65;1.40;;;;;;;42.25;13.74;99595.81;4895695;29;20047;-81
2022/06/17 08:15:26;;;;;;;3.28;1.50;;;;;;;41.40;13.43;99600.75;4908464;29;20040;-82
2022/06/17 08:17:56;;;;;;;2.38;1.48;;;;;;;39.11;15.02;99605.81;4905342;29;20504;-82
2022/06/17 08:20:31;;;;;;;2.53;1.40;;;;;;;37.44;16.61;99615.41;4906186;29;20075;-84
2022/06/17 08:22:58;;;;;;;3.03;1.88;;;;;;;36.62;16.73;99545.06;4907696;29;20044;-81
2022/06/17 08:25:35;;;;;;;2.47;2.28;;;;;;;36.28;16.71;99567.31;4908055;29;20412;-81
2022/06/17 08:28:07;;;;;;;3.88;1.42;;;;;;;35.52;17.42;99576.34;4911013;29;20092;-84
2022/06/17 08:30:49;;;;;;;2.13;1.83;;;;;;;34.37;18.31;99513.81;4907607;29;20058;-82
2022/06/17 08:33:31;;;;;;;3.03;1.77;;;;;;;33.35;18.85;99458.56;4910146;29;20044;-83
2022/06/17 08:36:10;;;;;;;5.35;1.75;;;;;;;33.40;19.95;99603.66;4913088;29;20060;-81
2022/06/17 08:38:44;;;;;;;5.72;3.25;;;;;;;32.59;20.64;99595.97;4909051;29;20040;-84
2022/06/17 08:41:31;;;;;;;8.63;2.95;;;;;;;32.04;21.24;99589.94;4907061;29;20459;-85
2022/06/17 08:44:15;;;;;;;3.42;1.90;;;;;;;31.59;22.08;99588.25;4895863;29;20504;-86
2022/06/17 08:47:03;;;;;;;3.80;2.00;;;;;;;30.97;21.96;99556.75;4909788;29;20347;-82
2022/06/17 08:49:54;;;;;;;4.75;2.50;;;;;;;30.80;22.45;99586.06;4909337;29;20091;-83
2022/06/17 08:53:11;;;;;;;3.92;1.88;;;;;;;30.56;22.94;99587.50;4910532;29;20137;-82
2022/06/17 08:55:54;;;;;;;5.20;2.15;;;;;;;30.48;23.03;99590.03;4908620;29;20520;-85
2022/06/17 08:58:42;;;;;;;6.03;3.17;;;;;;;30.45;23.42;99526.78;4910016;29;20504;-81
2022/06/17 09:05:30;;;;;;;8.45;3.60;;;;;;;30.44;23.22;99586.81;4899629;29;20429;-82
2022/06/17 09:08:25;;;;;;;28.17;22.85;;;;;;;30.24;23.89;99587.84;4931360;29;20059;-86
2022/06/17 09:11:20;;;;;;;20.05;14.68;;;;;;;29.44;24.37;99522.81;4912482;29;20059;-81
2022/06/17 09:14:10;;;;;;;6.18;2.83;;;;;;;29.28;24.92;99603.72;4909641;29;20641;-80
2022/06/17 09:17:15;;;;;;;11.63;7.90;;;;;;;27.40;27.46;99495.16;4910685;29;20048;-83
2022/06/17 09:20:27;;;;;;;6.53;4.60;;;;;;;25.84;30.29;99482.66;4909779;29;20052;-85
2022/06/17 09:23:07;;;;;;;12.40;8.73;;;;;;;25.24;33.03;99543.97;4915423;29;20063;-80
2022/06/17 09:25:55;;;;;;;9.20;4.28;;;;;;;23.97;36.98;99609.59;4894729;29;20040;-82
2022/06/17 09:28:30;;;;;;;7.60;2.55;;;;;;;22.44;40.62;99614.91;4899132;29;20040;-84
2022/06/17 09:31:02;;;;;;;8.68;3.25;;;;;;;21.03;42.16;99494.25;4929252;29;20100;-84
2022/06/17 09:33:42;;;;;;;7.53;3.47;;;;;;;21.03;44.05;99572.72;4881856;29;20052;-87
2022/06/17 09:36:31;;;;;;;6.55;3.80;;;;;;;21.39;44.67;99689.81;4902517;29;20067;-83
2022/06/17 09:39:42;;;;;;;5.88;3.40;;;;;;;21.01;45.07;99691.84;4919103;29;20048;-83
2022/06/17 09:42:08;;;;;;;6.20;2.72;;;;;;;20.67;44.93;99696.25;4899959;29;20331;-83
2022/06/17 09:45:10;;;;;;;5.70;1.90;;;;;;;20.22;45.46;99672.13;4917802;29;20051;-86
2022/06/17 09:47:51;;;;;;;3.97;1.50;;;;;;;19.80;46.69;99639.00;4901363;29;20512;-83
2022/06/17 09:50:44;;;;;;;4.35;1.70;;;;;;;20.47;47.31;99699.94;4900707;29;20420;-84
2022/06/17 09:53:48;;;;;;;3.85;1.70;;;;;;;20.89;47.43;99696.00;4948048;29;20044;-84
2022/06/17 09:56:34;;;;;;;4.75;1.90;;;;;;;21.16;46.88;99691.94;4922988;29;20078;-81
2022/06/17 09:59:47;;;;;;;7.63;2.03;;;;;;;20.71;47.01;99578.00;4921597;29;20048;-83
2022/06/17 10:02:46;;;;;;;4.07;1.83;;;;;;;21.58;46.96;99671.13;4958189;29;20072;-83
2022/06/17 10:05:34;;;;;;;2.85;1.60;;;;;;;21.33;45.90;99526.97;4908461;29;20048;-81
2022/06/17 10:08:11;;;;;;;3.75;1.77;;;;;;;23.05;44.64;99672.19;4925393;29;20048;-81
2022/06/17 10:11:06;;;;;;;2.35;1.55;;;;;;;23.88;43.22;99655.38;4907225;29;20040;-84
2022/06/17 10:13:50;;;;;;;2.35;1.30;;;;;;;25.00;42.88;99659.25;4922516;29;20106;-82
2022/06/17 10:19:38;;;;;;;1.73;1.08;;;;;;;26.09;37.50;99638.03;4913572;29;20052;-83
2022/06/17 10:22:17;;;;;;;4.18;1.77;;;;;;;25.97;38.29;99632.69;4910182;29;20056;-88
2022/06/17 10:25:22;;;;;;;5.45;1.73;;;;;;;25.69;37.82;99564.66;4911473;29;20054;-84
2022/06/17 10:27:58;;;;;;;2.80;1.80;;;;;;;25.97;38.26;99626.47;4929601;29;20108;-84
2022/06/17 10:30:45;;;;;;;4.93;2.40;;;;;;;26.09;37.73;99624.69;4898108;29;20070;-83
2022/06/17 10:33:15;;;;;;;4.18;2.22;;;;;;;25.30;38.16;99543.53;4906246;29;20437;-83
2022/06/17 10:35:45;;;;;;;3.43;1.90;;;;;;;25.44;38.63;99558.50;4910097;29;21159;-82
2022/06/17 10:38:21;;;;;;;4.75;1.50;;;;;;;25.63;38.75;99573.94;4910287;29;20132;-82
2022/06/17 10:40:49;;;;;;;3.67;2.80;;;;;;;25.73;39.08;99557.28;4907211;29;20071;-81
2022/06/17 10:43:27;;;;;;;3.72;1.45;;;;;;;26.15;37.89;99602.94;4914710;29;20515;-84
2022/06/17 10:46:03;;;;;;;2.55;1.45;;;;;;;25.63;37.54;99546.47;4913511;29;20131;-85
2022/06/17 10:48:43;;;;;;;2.80;1.30;;;;;;;26.00;37.29;99592.47;4924731;29;20051;-86
2022/06/17 10:51:09;;;;;;;2.05;1.40;;;;;;;25.67;37.73;99566.59;4898933;29;20048;-85
2022/06/17 10:53:57;;;;;;;1.98;1.38;;;;;;;25.76;38.20;99594.34;4926519;29;20043;-83
2022/06/17 10:56:48;;;;;;;3.00;1.50;;;;;;;25.77;38.00;99586.22;4911700;29;20047;-87
2022/06/17 10:59:28;;;;;;;2.67;1.60;;;;;;;25.51;37.89;99530.44;4913810;29;20052;-84
2022/06/17 11:01:56;;;;;;;1.75;1.50;;;;;;;25.91;37.89;99579.00;4908667;29;20395;-82
2022/06/17 11:04:26;;;;;;;3.35;1.77;;;;;;;25.86;37.46;99585.53;4910029;29;20067;-84
2022/06/17 11:07:06;;;;;;;2.73;1.40;;;;;;;25.23;37.40;99487.25;4910432;29;20048;-84
2022/06/17 11:09:56;;;;;;;2.70;2.00;;;;;;;25.12;37.67;99495.19;4899661;29;20051;-82
2022/06/17 11:12:46;;;;;;;2.70;1.65;;;;;;;25.50;37.79;99541.22;4943966;29;20385;-82
2022/06/17 11:15:27;;;;;;;2.50;1.63;;;;;;;25.40;37.39;99549.84;4892847;29;20074;-83
2022/06/17 11:17:58;;;;;;;3.13;1.77;;;;;;;25.34;37.85;99554.78;4927105;29;20507;-83
2022/06/17 11:20:31;;;;;;;3.05;1.60;;;;;;;25.39;37.25;99544.66;4915185;29;20048;-83
2022/06/17 11:23:07;;;;;;;3.35;1.80;;;;;;;25.49;37.09;99569.66;4942899;29;20040;-83
2022/06/17 11:25:38;;;;;;;5.05;1.95;;;;;;;25.44;37.15;99560.31;4900633;29;20103;-81
2022/06/17 11:28:24;;;;;;;2.00;1.67;;;;;;;25.40;37.31;99586.31;4912821;29;20052;-83
2022/06/17 11:31:01;;;;;;;3.38;1.75;;;;;;;24.85;37.85;99522.03;4945186;29;20055;-82
2022/06/17 11:33:38;;;;;;;3.45;1.80;;;;;;;25.13;38.15;99579.38;4907258;29;20519;-81
2022/06/17 11:36:14;;;;;;;2.60;1.60;;;;;;;24.62;38.14;99501.41;4913040;29;20052;-80
2022/06/17 11:38:40;;;;;;;1.45;1.27;;;;;;;24.79;38.13;99569.38;4902496;29;20044;-82
2022/06/17 11:41:09;;;;;;;2.88;1.33;;;;;;;24.42;38.48;99531.25;4910546;29;20051;-84
2022/06/17 11:43:41;;;;;;;2.63;1.60;;;;;;;24.31;38.08;99481.50;4928364;29;20519;-85
2022/06/17 11:46:25;;;;;;;4.88;1.58;;;;;;;24.49;37.29;99488.19;4931913;29;20044;-83
2022/06/17 11:49:10;;;;;;;1.80;1.70;;;;;;;24.92;36.83;99540.06;4929647;29;20047;-84
2022/06/17 11:51:45;;;;;;;1.98;1.52;;;;;;;24.81;37.16;99526.72;4914496;29;20099;-83
2022/06/17 11:54:25;;;;;;;4.45;1.55;;;;;;;25.02;37.25;99550.06;4916181;29;20062;-80
2022/06/17 11:56:53;;;;;;;4.13;1.70;;;;;;;24.92;37.05;99544.56;4893935;29;20044;-81
2022/06/17 11:59:28;;;;;;;4.97;1.80;;;;;;;24.83;37.25;99514.13;4928298;29;20571;-82
2022/06/17 12:01:54;;;;;;;2.55;1.60;;;;;;;24.83;37.41;99551.38;4913812;29;20072;-82
2022/06/17 12:05:05;;;;;;;2.45;1.88;;;;;;;24.41;38.47;99558.78;4924111;29;20048;-82
2022/06/17 12:07:53;;;;;;;3.20;1.60;;;;;;;23.70;39.12;99529.97;4912445;29;20059;-82
2022/06/17 12:10:31;;;;;;;4.05;1.48;;;;;;;23.43;40.25;99539.69;4909281;29;20516;-85
2022/06/17 12:13:05;;;;;;;2.22;1.95;;;;;;;23.21;40.62;99510.19;4925030;29;20048;-84
2022/06/17 12:15:40;;;;;;;2.17;1.70;;;;;;;23.18;40.68;99524.50;4898059;29;20142;-85
2022/06/17 12:18:12;;;;;;;2.30;1.63;;;;;;;23.05;40.97;99513.88;4931392;29;20051;-82
2022/06/17 12:21:02;;;;;;;4.35;1.67;;;;;;;23.29;41.42;99564.50;4903217;29;20088;-84
2022/06/17 12:23:56;;;;;;;9.43;5.72;;;;;;;23.64;41.48;99579.03;4914174;29;20129;-80
2022/06/17 12:26:35;;;;;;;4.18;2.58;;;;;;;23.94;40.63;99593.88;4894442;29;20059;-79
2022/06/17 12:29:10;;;;;;;4.38;1.73;;;;;;;23.68;40.74;99596.47;4908558;29;20188;-84
2022/06/17 12:31:41;;;;;;;2.97;1.55;;;;;;;23.42;40.90;99593.75;4909825;29;20079;-81